Time;durP1;ratioP1;P1;durP2;ratioP2;P2;SDS_P1;SDS_P2;PMS_P1;PMS_P2;Temp;Humidity;BMP_temperature;BMP_pressure;BME280_temperature;BME280_humidity;BME280_pressure;Samples;Min_cycle;Max_cycle;Signal;HPM_P1;HPM_P2
2022/11/13 00:01:51;;;;;;;;;;;14.80;96.70;;;;;;5111040;27;20097;-74
2022/11/13 00:04:39;;;;;;;1.67;0.80;;;14.80;96.70;;;;;;5121963;27;19931;-74
2022/11/13 00:07:26;;;;;;;0.70;0.50;;;14.80;96.70;;;;;;5107488;27;20827;-74
2022/11/13 00:10:12;;;;;;;0.90;0.50;;;14.80;96.70;;;;;;5088521;28;20054;-74
2022/11/13 00:12:59;;;;;;;1.10;0.60;;;14.90;96.70;;;;;;5090700;27;20143;-74
2022/11/13 00:15:56;;;;;;;1.48;0.60;;;14.90;96.70;;;;;;5106208;27;20045;-74
2022/11/13 00:18:42;;;;;;;0.98;0.32;;;14.90;96.70;;;;;;5088918;27;20175;-74
2022/11/13 00:21:30;;;;;;;1.48;0.70;;;15.00;96.70;;;;;;5105135;27;20117;-75
2022/11/13 00:24:17;;;;;;;1.00;0.60;;;15.10;96.70;;;;;;5108692;27;20180;-74
2022/11/13 00:27:04;;;;;;;1.35;0.50;;;15.20;96.70;;;;;;5107096;27;20046;-74
2022/11/13 00:29:50;;;;;;;1.00;0.60;;;15.20;96.70;;;;;;5103056;27;20055;-74
2022/11/13 00:32:38;;;;;;;1.35;0.43;;;15.30;96.70;;;;;;5097748;27;20054;-74
2022/11/13 00:35:25;;;;;;;0.60;0.50;;;15.20;96.70;;;;;;5112668;27;20073;-75
2022/11/13 00:38:13;;;;;;;0.70;0.40;;;15.20;96.70;;;;;;5113454;27;20042;-75
2022/11/13 00:41:00;;;;;;;1.00;0.55;;;15.20;96.70;;;;;;5090025;27;20086;-74
2022/11/13 00:43:47;;;;;;;0.60;0.40;;;15.10;96.70;;;;;;5108501;27;20058;-74
2022/11/13 00:46:34;;;;;;;0.57;0.30;;;15.10;96.70;;;;;;5104946;27;20614;-74
2022/11/13 00:49:20;;;;;;;1.30;0.50;;;15.10;96.70;;;;;;5084048;27;20065;-75
2022/11/13 00:52:06;;;;;;;2.08;0.55;;;15.10;96.70;;;;;;5105357;28;20050;-75
2022/11/13 00:54:54;;;;;;;0.60;0.40;;;15.00;96.70;;;;;;5103462;27;20078;-74
2022/11/13 00:57:41;;;;;;;0.90;0.43;;;14.90;96.70;;;;;;5110162;27;20602;-74
2022/11/13 01:00:28;;;;;;;0.75;0.40;;;14.90;96.70;;;;;;5111337;27;20535;-75
2022/11/13 01:03:16;;;;;;;0.63;0.40;;;14.80;96.70;;;;;;5093549;27;20142;-74
2022/11/13 01:06:09;;;;;;;1.13;0.70;;;14.80;96.70;;;;;;5092471;27;20058;-75
2022/11/13 01:08:58;;;;;;;0.73;0.40;;;14.70;96.70;;;;;;5115224;27;20054;-74
2022/11/13 01:11:46;;;;;;;1.45;0.73;;;14.80;96.70;;;;;;5100892;27;20630;-75
2022/11/13 01:14:33;;;;;;;0.95;0.47;;;14.80;96.70;;;;;;5095332;27;20050;-74
2022/11/13 01:17:19;;;;;;;1.13;0.40;;;14.80;96.70;;;;;;5101961;27;20065;-75
2022/11/13 01:20:06;;;;;;;1.73;0.60;;;14.80;96.70;;;;;;5111561;27;20330;-75
2022/11/13 01:22:52;;;;;;;1.23;0.40;;;14.80;96.70;;;;;;5101648;28;20291;-75
2022/11/13 01:25:39;;;;;;;1.08;0.50;;;14.80;96.70;;;;;;5103058;27;20061;-74
2022/11/13 01:28:27;;;;;;;1.35;0.60;;;14.80;96.70;;;;;;5091051;28;20050;-74
2022/11/13 01:31:16;;;;;;;0.77;0.43;;;14.70;96.70;;;;;;5096587;28;20189;-74
2022/11/13 01:34:02;;;;;;;1.30;0.70;;;14.70;96.70;;;;;;5087139;28;20054;-74
2022/11/13 01:36:50;;;;;;;1.35;0.80;;;14.60;96.70;;;;;;5111158;27;20070;-75
2022/11/13 01:39:36;;;;;;;1.38;0.70;;;14.40;96.70;;;;;;5093369;28;20050;-75
2022/11/13 01:42:23;;;;;;;1.98;1.17;;;14.20;96.70;;;;;;5084908;28;20074;-74
2022/11/13 01:45:47;;;;;;;1.98;0.73;;;14.10;96.70;;;;;;5080218;28;20570;-76
2022/11/13 01:48:38;;;;;;;1.40;0.85;;;14.00;96.70;;;;;;5074019;28;20055;-75
2022/11/13 01:51:29;;;;;;;1.17;0.75;;;13.90;96.70;;;;;;5080522;28;20046;-75
2022/11/13 01:54:18;;;;;;;1.00;0.70;;;13.80;96.70;;;;;;5076323;28;20059;-74
2022/11/13 01:57:05;;;;;;;1.98;1.25;;;13.80;96.70;;;;;;5073070;28;20225;-75
2022/11/13 01:59:57;;;;;;;2.50;1.15;;;13.70;96.70;;;;;;5073309;28;20106;-75
2022/11/13 02:02:43;;;;;;;4.25;1.80;;;13.60;96.70;;;;;;5076461;28;20063;-75
2022/11/13 02:05:31;;;;;;;4.63;2.10;;;13.50;96.70;;;;;;5074747;28;20189;-74
2022/11/13 02:08:18;;;;;;;4.47;1.90;;;13.50;96.70;;;;;;5070341;28;20054;-74
2022/11/13 02:11:04;;;;;;;2.97;1.98;;;13.50;96.70;;;;;;5072161;28;20547;-74
2022/11/13 02:13:51;;;;;;;5.50;1.63;;;13.50;96.70;;;;;;5071209;28;20059;-76
2022/11/13 02:16:39;;;;;;;4.93;2.22;;;13.50;96.70;;;;;;5076841;28;20544;-75
2022/11/13 02:19:30;;;;;;;6.07;2.92;;;13.40;96.70;;;;;;5070518;28;20064;-76
2022/11/13 02:22:24;;;;;;;4.03;2.30;;;13.50;96.70;;;;;;5087501;28;20059;-75
2022/11/13 02:25:13;;;;;;;4.57;1.90;;;13.40;96.70;;;;;;5075293;28;20314;-75
2022/11/13 02:28:00;;;;;;;3.60;1.50;;;13.50;96.70;;;;;;5070193;28;20128;-74
2022/11/13 02:30:46;;;;;;;4.05;1.48;;;13.40;96.70;;;;;;5070526;28;20635;-74
2022/11/13 02:33:33;;;;;;;4.00;1.50;;;13.10;96.70;;;;;;5078250;28;20545;-74
2022/11/13 02:36:21;;;;;;;2.47;1.30;;;13.10;96.70;;;;;;5066697;28;20178;-75
2022/11/13 02:39:10;;;;;;;1.83;1.05;;;13.10;96.70;;;;;;5063677;28;20055;-75
2022/11/13 02:41:58;;;;;;;2.30;1.20;;;13.10;96.70;;;;;;5085612;28;20058;-75
2022/11/13 02:44:44;;;;;;;2.38;1.20;;;13.10;96.70;;;;;;5091013;28;20054;-75
2022/11/13 02:47:31;;;;;;;1.88;1.00;;;13.00;96.70;;;;;;5104864;28;20079;-74
2022/11/13 02:50:17;;;;;;;3.55;1.25;;;13.00;96.70;;;;;;5096080;27;20164;-75
2022/11/13 02:53:04;;;;;;;3.17;0.98;;;13.10;96.70;;;;;;5102895;27;20116;-74
2022/11/13 02:55:51;;;;;;;1.20;1.00;;;13.00;96.70;;;;;;5092246;27;20164;-74
2022/11/13 02:58:39;;;;;;;2.65;1.23;;;13.00;96.70;;;;;;5120383;27;20420;-74
2022/11/13 03:01:25;;;;;;;1.85;1.10;;;13.00;96.70;;;;;;5108298;27;20062;-74
2022/11/13 03:04:12;;;;;;;3.42;1.20;;;13.00;96.70;;;;;;5104568;27;20061;-74
2022/11/13 03:07:06;;;;;;;3.42;1.20;;;12.90;96.70;;;;;;5116660;27;20054;-77
2022/11/13 03:09:55;;;;;;;2.05;1.10;;;12.90;96.70;;;;;;5101235;27;20054;-74
2022/11/13 03:12:41;;;;;;;2.80;1.00;;;12.90;96.70;;;;;;5107634;27;20063;-73
2022/11/13 03:15:29;;;;;;;2.38;1.48;;;12.80;96.70;;;;;;5102695;27;20065;-74
2022/11/13 03:18:16;;;;;;;2.75;1.33;;;12.70;96.70;;;;;;5113436;27;20058;-73
2022/11/13 03:21:06;;;;;;;2.30;1.02;;;12.70;96.70;;;;;;5114090;27;20127;-75
2022/11/13 03:23:54;;;;;;;1.63;1.23;;;12.70;96.70;;;;;;5112956;27;20065;-75
2022/11/13 03:26:40;;;;;;;3.80;1.65;;;12.70;96.70;;;;;;5092350;27;20049;-75
2022/11/13 03:29:27;;;;;;;1.63;1.15;;;12.60;96.70;;;;;;5118532;27;20850;-75
2022/11/13 03:32:15;;;;;;;1.45;1.10;;;12.60;96.70;;;;;;5099959;27;20169;-75
2022/11/13 03:35:01;;;;;;;2.38;1.08;;;12.60;96.70;;;;;;5110940;27;20066;-75
2022/11/13 03:37:48;;;;;;;1.88;1.30;;;12.60;96.70;;;;;;5110722;27;20400;-75
2022/11/13 03:40:34;;;;;;;2.00;1.27;;;12.50;96.70;;;;;;5100301;27;20082;-75
2022/11/13 03:43:21;;;;;;;1.63;0.98;;;12.50;96.70;;;;;;5104768;27;20082;-75
2022/11/13 03:46:08;;;;;;;3.83;1.90;;;12.40;96.70;;;;;;5098184;28;20843;-75
2022/11/13 03:48:56;;;;;;;2.65;1.20;;;12.40;96.70;;;;;;5117732;27;20550;-76
2022/11/13 03:51:42;;;;;;;1.85;1.05;;;12.30;96.70;;;;;;5091149;27;20129;-75
2022/11/13 03:54:28;;;;;;;2.77;1.07;;;12.30;96.70;;;;;;5121990;27;20115;-75
2022/11/13 03:57:15;;;;;;;2.65;1.20;;;12.40;96.70;;;;;;5090010;28;20349;-75
2022/11/13 04:00:01;;;;;;;1.42;0.90;;;12.30;96.70;;;;;;5123497;27;20054;-75
2022/11/13 04:02:48;;;;;;;2.38;1.10;;;12.20;96.70;;;;;;5108739;27;20164;-75
2022/11/13 04:05:36;;;;;;;2.80;1.30;;;12.30;96.70;;;;;;5102187;27;20081;-75
2022/11/13 04:08:23;;;;;;;2.53;1.30;;;12.30;96.70;;;;;;5100070;27;20583;-75
2022/11/13 04:11:11;;;;;;;1.85;1.02;;;12.20;96.70;;;;;;5113560;27;20117;-75
2022/11/13 04:13:57;;;;;;;2.58;1.58;;;12.20;96.70;;;;;;5098923;28;20668;-75
2022/11/13 04:16:44;;;;;;;2.47;1.50;;;12.20;96.70;;;;;;5114845;27;20104;-76
2022/11/13 04:19:30;;;;;;;3.30;1.15;;;12.30;96.70;;;;;;5117770;27;20284;-75
2022/11/13 04:22:18;;;;;;;1.67;1.17;;;12.30;96.70;;;;;;5107027;27;20054;-75
2022/11/13 04:25:05;;;;;;;3.10;1.20;;;12.20;96.70;;;;;;5103883;27;20086;-76
2022/11/13 04:27:52;;;;;;;2.33;1.10;;;12.20;96.70;;;;;;5118059;27;20058;-76
2022/11/13 04:30:39;;;;;;;1.50;1.00;;;12.20;96.70;;;;;;5103812;27;20054;-75
2022/11/13 04:33:25;;;;;;;1.35;1.02;;;12.20;96.70;;;;;;5111359;27;20259;-75
2022/11/13 04:36:11;;;;;;;2.10;1.20;;;12.20;96.70;;;;;;5115956;27;21356;-75
2022/11/13 04:38:59;;;;;;;2.33;1.25;;;12.10;96.70;;;;;;5103318;27;20296;-75
2022/11/13 04:44:50;;;;;;;2.40;1.40;;;12.00;96.70;;;;;;5112980;27;20058;-75
2022/11/13 04:47:37;;;;;;;2.15;1.40;;;12.00;96.70;;;;;;5116553;27;20050;-75
2022/11/13 04:50:24;;;;;;;2.20;1.27;;;12.00;96.70;;;;;;5095678;27;20549;-76
2022/11/13 04:53:10;;;;;;;2.25;1.20;;;12.00;96.70;;;;;;5106582;27;20969;-75
2022/11/13 04:55:58;;;;;;;2.00;1.35;;;12.00;96.70;;;;;;5111719;27;20058;-75
2022/11/13 04:58:44;;;;;;;2.92;1.10;;;12.00;96.70;;;;;;5114829;27;20685;-75
2022/11/13 05:01:30;;;;;;;1.80;1.10;;;12.00;96.70;;;;;;5089840;28;20046;-75
2022/11/13 05:04:17;;;;;;;2.47;1.30;;;12.00;96.70;;;;;;5104782;27;20292;-75
2022/11/13 05:07:04;;;;;;;1.75;1.20;;;12.00;96.70;;;;;;5105086;27;20111;-75
2022/11/13 05:09:50;;;;;;;1.92;1.13;;;12.00;96.70;;;;;;5105276;27;20054;-75
2022/11/13 05:12:38;;;;;;;2.63;1.42;;;12.00;96.70;;;;;;5102570;27;20050;-75
2022/11/13 05:15:25;;;;;;;2.72;1.55;;;12.00;96.70;;;;;;5103192;27;20053;-76
2022/11/13 05:18:12;;;;;;;3.15;1.67;;;12.00;96.70;;;;;;5095642;27;20046;-75
2022/11/13 05:20:58;;;;;;;4.63;1.97;;;12.00;96.70;;;;;;5095310;28;20050;-76
2022/11/13 05:23:45;;;;;;;2.25;1.73;;;12.00;96.70;;;;;;5103302;27;20324;-75
2022/11/13 05:26:31;;;;;;;2.97;1.80;;;12.00;96.70;;;;;;5112083;27;20543;-75
2022/11/13 05:29:19;;;;;;;2.70;1.50;;;11.90;96.70;;;;;;5109874;27;20739;-75
2022/11/13 05:32:06;;;;;;;4.53;1.50;;;11.90;96.70;;;;;;5115907;27;20047;-75
2022/11/13 05:34:52;;;;;;;2.70;1.57;;;11.90;96.70;;;;;;5118884;27;20099;-76
2022/11/13 05:37:39;;;;;;;3.75;1.70;;;11.90;96.70;;;;;;5111261;27;20833;-76
2022/11/13 05:40:25;;;;;;;4.03;1.40;;;11.80;96.70;;;;;;5097300;27;20049;-75
2022/11/13 05:43:11;;;;;;;3.20;1.35;;;11.80;96.70;;;;;;5088009;28;20602;-75
2022/11/13 05:46:04;;;;;;;2.95;1.27;;;11.70;96.70;;;;;;5118706;28;20066;-75
2022/11/13 05:48:53;;;;;;;3.10;1.50;;;11.70;96.70;;;;;;5105643;28;20538;-75
2022/11/13 05:51:40;;;;;;;2.60;1.52;;;11.70;96.70;;;;;;5112717;28;20097;-75
2022/11/13 05:54:26;;;;;;;2.38;1.30;;;11.70;96.70;;;;;;5109535;28;20631;-75
2022/11/13 05:57:13;;;;;;;3.00;1.58;;;11.90;96.70;;;;;;5087547;28;20061;-75
2022/11/13 05:59:59;;;;;;;3.92;1.98;;;11.90;96.70;;;;;;5114811;28;20054;-75
2022/11/13 06:02:47;;;;;;;3.65;2.22;;;11.90;96.70;;;;;;5103410;28;20055;-75
2022/11/13 06:05:34;;;;;;;4.53;3.13;;;11.80;96.70;;;;;;5108105;28;20606;-75
2022/11/13 06:08:20;;;;;;;4.53;2.92;;;11.80;96.70;;;;;;5109265;27;20080;-76
2022/11/13 06:11:09;;;;;;;4.75;3.08;;;11.70;96.70;;;;;;5095530;28;20112;-75
2022/11/13 06:13:56;;;;;;;5.57;2.50;;;11.60;96.70;;;;;;5113421;27;20058;-75
2022/11/13 06:16:42;;;;;;;;;;;11.60;96.70;;;;;;5097494;28;20519;-75
2022/11/13 06:19:30;;;;;;;3.45;2.42;;;11.60;96.70;;;;;;5102347;28;19965;-75
2022/11/13 06:22:16;;;;;;;4.03;2.53;;;11.60;96.70;;;;;;5102977;28;20181;-75
2022/11/13 06:25:03;;;;;;;5.23;3.27;;;11.50;96.70;;;;;;5088407;27;20058;-75
2022/11/13 06:27:49;;;;;;;5.68;2.50;;;11.50;96.70;;;;;;5115071;27;20050;-75
2022/11/13 06:30:36;;;;;;;3.50;2.60;;;11.50;96.70;;;;;;5101588;27;20539;-75
2022/11/13 06:33:22;;;;;;;5.72;3.72;;;11.50;96.70;;;;;;5091972;27;20062;-76
2022/11/13 06:36:13;;;;;;;4.85;3.42;;;11.50;96.70;;;;;;5108311;27;20047;-75
2022/11/13 06:38:59;;;;;;;4.78;3.25;;;11.40;96.70;;;;;;5119636;27;20660;-75
2022/11/13 06:41:46;;;;;;;4.35;3.17;;;11.40;96.70;;;;;;5107561;27;20574;-75
2022/11/13 06:44:32;;;;;;;4.32;3.00;;;11.50;96.70;;;;;;5116357;27;20059;-75
2022/11/13 06:47:19;;;;;;;5.38;3.10;;;11.50;96.70;;;;;;5119430;27;20050;-76
2022/11/13 06:50:07;;;;;;;5.43;3.70;;;11.70;96.70;;;;;;5098226;27;20054;-75
2022/11/13 06:52:55;;;;;;;9.00;4.90;;;11.70;96.70;;;;;;5122617;27;20131;-75
2022/11/13 06:55:46;;;;;;;8.40;6.00;;;11.90;96.70;;;;;;5092352;27;20058;-75
2022/11/13 06:58:32;;;;;;;12.88;8.05;;;12.10;96.70;;;;;;5117199;27;20397;-75
2022/11/13 07:01:20;;;;;;;15.88;9.88;;;12.20;96.70;;;;;;5103090;27;20053;-76
2022/11/13 07:04:10;;;;;;;19.35;11.75;;;12.20;96.70;;;;;;5109612;27;20061;-75
2022/11/13 07:06:56;;;;;;;35.05;21.42;;;12.20;96.70;;;;;;5090701;27;20204;-75
2022/11/13 07:09:44;;;;;;;40.85;24.48;;;12.30;96.70;;;;;;5107035;27;20055;-75
2022/11/13 07:12:30;;;;;;;35.63;21.10;;;12.40;96.70;;;;;;5116003;27;20060;-75
2022/11/13 07:15:17;;;;;;;30.53;19.20;;;12.50;96.70;;;;;;5101348;27;20050;-75
2022/11/13 07:18:05;;;;;;;26.52;15.38;;;12.60;96.70;;;;;;5114495;27;20116;-75
2022/11/13 07:20:52;;;;;;;22.02;13.02;;;12.60;96.70;;;;;;5092900;27;20564;-75
2022/11/13 07:23:41;;;;;;;17.07;9.33;;;12.70;96.70;;;;;;5109492;27;20089;-75
2022/11/13 07:26:30;;;;;;;9.05;5.55;;;12.80;96.70;;;;;;5102444;27;20303;-75
2022/11/13 07:29:17;;;;;;;8.23;4.82;;;13.00;96.70;;;;;;5109357;27;20055;-75
2022/11/13 07:32:04;;;;;;;10.10;5.55;;;13.20;96.70;;;;;;5091728;27;20107;-75
2022/11/13 07:34:50;;;;;;;7.10;4.45;;;13.30;96.70;;;;;;5120986;27;20549;-75
2022/11/13 07:37:37;;;;;;;8.02;5.20;;;13.40;96.70;;;;;;5100041;27;20077;-75
2022/11/13 07:40:23;;;;;;;9.70;5.45;;;13.40;96.70;;;;;;5123212;27;20058;-75
2022/11/13 07:43:11;;;;;;;9.23;6.18;;;13.40;96.70;;;;;;5111266;27;20078;-75
2022/11/13 07:45:58;;;;;;;7.03;4.82;;;13.40;96.70;;;;;;5103175;27;20131;-75
2022/11/13 07:48:44;;;;;;;;;;;13.50;96.70;;;;;;5109509;27;20173;-75
2022/11/13 07:51:31;;;;;;;6.32;4.30;;;13.60;96.70;;;;;;5089701;28;20446;-75
2022/11/13 07:54:17;;;;;;;7.35;4.07;;;13.60;96.70;;;;;;5098177;27;20112;-75
2022/11/13 07:57:04;;;;;;;7.53;4.25;;;13.70;96.70;;;;;;5083511;27;20063;-75
2022/11/13 07:59:52;;;;;;;5.33;3.80;;;13.80;96.70;;;;;;5118891;27;20058;-75
2022/11/13 08:02:38;;;;;;;5.95;4.00;;;13.90;96.70;;;;;;5108782;27;20436;-75
2022/11/13 08:05:25;;;;;;;6.18;3.83;;;14.00;96.70;;;;;;5103323;27;20061;-76
2022/11/13 08:08:12;;;;;;;7.68;4.93;;;14.20;96.70;;;;;;5109152;27;20050;-76
2022/11/13 08:11:04;;;;;;;12.02;6.05;;;14.30;96.70;;;;;;5116501;27;20409;-75
2022/11/13 08:13:51;;;;;;;8.95;6.22;;;14.30;96.70;;;;;;5086402;27;20619;-75
2022/11/13 08:16:39;;;;;;;5.82;4.63;;;14.40;96.70;;;;;;5091831;28;20050;-75
2022/11/13 08:19:26;;;;;;;7.10;4.78;;;14.60;96.70;;;;;;5083105;27;20055;-76
2022/11/13 08:22:12;;;;;;;7.00;4.40;;;14.70;96.70;;;;;;5110129;27;20062;-76
2022/11/13 08:24:59;;;;;;;5.55;3.78;;;14.80;96.70;;;;;;5093099;27;20042;-75
2022/11/13 08:27:46;;;;;;;5.55;3.65;;;14.90;96.70;;;;;;5107730;27;20187;-75
2022/11/13 08:30:32;;;;;;;8.25;4.43;;;14.90;96.70;;;;;;5113761;27;20156;-75
2022/11/13 08:33:21;;;;;;;8.80;4.18;;;15.00;96.70;;;;;;5099506;27;20050;-75
2022/11/13 08:36:09;;;;;;;6.03;3.67;;;15.10;96.70;;;;;;5113235;27;20058;-76
2022/11/13 08:42:40;;;;;;;4.45;3.42;;;15.00;96.70;;;;;;5101265;27;20065;-77
2022/11/13 08:45:28;;;;;;;6.20;3.92;;;15.20;96.70;;;;;;5107191;27;20055;-75
2022/11/13 08:48:15;;;;;;;4.00;3.60;;;15.40;96.70;;;;;;5108595;27;20409;-75
2022/11/13 08:51:03;;;;;;;4.57;3.47;;;15.60;96.70;;;;;;5098670;27;20058;-75
2022/11/13 08:53:50;;;;;;;4.32;3.08;;;15.70;96.70;;;;;;5118314;27;20038;-75
2022/11/13 08:56:37;;;;;;;4.43;3.35;;;15.90;96.70;;;;;;5089601;28;20093;-76
2022/11/13 08:59:24;;;;;;;7.55;3.65;;;16.10;96.70;;;;;;5083845;28;20112;-75
2022/11/13 09:02:13;;;;;;;5.85;3.92;;;16.20;96.70;;;;;;5088432;28;20051;-76
2022/11/13 09:04:59;;;;;;;5.53;3.47;;;16.40;96.70;;;;;;5106820;27;20143;-77
2022/11/13 09:07:48;;;;;;;5.25;3.60;;;16.30;96.70;;;;;;5119653;27;20475;-75
2022/11/13 09:10:34;;;;;;;5.80;3.38;;;16.30;96.70;;;;;;5102807;27;20113;-73
2022/11/13 09:13:20;;;;;;;5.87;3.77;;;16.40;96.70;;;;;;5104527;27;20054;-73
2022/11/13 09:16:07;;;;;;;6.10;3.42;;;16.30;96.70;;;;;;5105296;27;20046;-74
2022/11/13 09:18:54;;;;;;;4.05;3.08;;;16.40;96.70;;;;;;5107299;27;20046;-73
2022/11/13 09:21:41;;;;;;;6.85;2.95;;;16.80;96.70;;;;;;5092791;27;20128;-73
2022/11/13 09:24:29;;;;;;;4.15;3.30;;;17.00;96.70;;;;;;5086177;27;20632;-74
2022/11/13 09:27:16;;;;;;;6.20;3.50;;;17.30;96.70;;;;;;5103285;27;20553;-74
2022/11/13 09:30:03;;;;;;;4.05;2.92;;;17.60;96.70;;;;;;5100643;27;20165;-74
2022/11/13 09:32:53;;;;;;;5.05;2.95;;;17.70;96.70;;;;;;5095244;28;20076;-73
2022/11/13 09:35:40;;;;;;;5.47;3.17;;;17.80;96.70;;;;;;5102874;27;20062;-73
2022/11/13 09:38:30;;;;;;;5.25;3.75;;;17.90;96.70;;;;;;5102889;27;20152;-74
2022/11/13 09:41:22;;;;;;;3.72;3.30;;;18.10;96.70;;;;;;5085158;27;20054;-74
2022/11/13 09:44:16;;;;;;;4.68;2.72;;;18.10;96.70;;;;;;5105927;28;20549;-75
2022/11/13 09:47:08;;;;;;;4.85;2.92;;;18.00;96.70;;;;;;5097377;28;20050;-75
2022/11/13 09:50:01;;;;;;;11.18;3.80;;;17.80;96.70;;;;;;5114249;28;20062;-72
2022/11/13 09:52:48;;;;;;;4.35;3.15;;;17.80;96.70;;;;;;5091013;27;20097;-73
2022/11/13 09:55:40;;;;;;;8.27;4.53;;;17.60;96.70;;;;;;5119432;28;20061;-73
2022/11/13 09:58:41;;;;;;;8.10;3.70;;;17.50;96.70;;;;;;5117708;27;20180;-72
2022/11/13 10:01:40;;;;;;;5.78;3.67;;;17.50;96.70;;;;;;5101917;27;20047;-72
2022/11/13 10:04:47;;;;;;;7.88;3.40;;;17.50;96.70;;;;;;5112837;27;20058;-71
2022/11/13 10:07:40;;;;;;;;;;;17.50;96.70;;;;;;5095204;27;20062;-72
2022/11/13 10:10:43;;;;;;;4.65;2.97;;;17.60;96.70;;;;;;5114976;27;19934;-72
2022/11/13 10:13:42;;;;;;;7.07;3.72;;;17.70;96.70;;;;;;5117520;27;20598;-72
2022/11/13 10:16:32;;;;;;;8.18;3.55;;;17.90;96.70;;;;;;5104291;27;20070;-72
2022/11/13 10:19:26;;;;;;;5.75;3.20;;;17.90;96.70;;;;;;5101569;28;20092;-72
2022/11/13 10:22:15;;;;;;;5.53;3.30;;;17.90;96.70;;;;;;5090480;27;20062;-71
2022/11/13 10:25:21;;;;;;;8.63;3.70;;;17.90;96.70;;;;;;5106058;27;20614;-71
2022/11/13 10:28:15;;;;;;;6.40;3.03;;;17.90;96.70;;;;;;5115999;27;20081;-73
2022/11/13 10:31:23;;;;;;;4.28;3.35;;;18.00;96.70;;;;;;5111651;27;20443;-72
2022/11/13 10:34:11;;;;;;;5.63;3.33;;;18.00;96.70;;;;;;5125042;27;20054;-71
2022/11/13 10:37:16;;;;;;;8.88;4.07;;;18.00;96.70;;;;;;5120516;27;20610;-72
2022/11/13 10:40:03;;;;;;;6.78;3.80;;;18.00;96.70;;;;;;5115508;27;20086;-72
2022/11/13 10:42:49;;;;;;;7.50;4.43;;;18.20;96.70;;;;;;5112470;27;20527;-73
2022/11/13 10:45:36;;;;;;;6.75;3.67;;;18.20;96.70;;;;;;5113854;27;20062;-73
2022/11/13 10:48:26;;;;;;;6.07;3.55;;;18.20;96.70;;;;;;5101086;27;20240;-72
2022/11/13 10:51:23;;;;;;;8.80;3.90;;;18.40;96.70;;;;;;5114306;27;20057;-73
2022/11/13 10:54:23;;;;;;;5.63;3.85;;;18.70;96.70;;;;;;5118648;27;20051;-73
2022/11/13 10:57:26;;;;;;;10.75;4.03;;;18.90;96.70;;;;;;5108937;27;20070;-73
2022/11/13 11:00:23;;;;;;;6.47;3.45;;;19.00;96.70;;;;;;5093789;27;20121;-73
2022/11/13 11:03:14;;;;;;;6.72;3.88;;;19.10;96.70;;;;;;5107709;27;20176;-73
2022/11/13 11:06:04;;;;;;;4.88;3.53;;;18.90;96.70;;;;;;5112473;27;20104;-73
2022/11/13 11:08:51;;;;;;;6.72;4.30;;;18.80;96.70;;;;;;5115924;27;20515;-73
2022/11/13 11:15:01;;;;;;;5.97;4.05;;;18.60;96.70;;;;;;5113282;27;20177;-72
2022/11/13 11:17:50;;;;;;;6.55;4.40;;;18.60;96.70;;;;;;5097405;27;20132;-72
2022/11/13 11:20:43;;;;;;;5.50;4.22;;;18.70;96.70;;;;;;5112921;27;20050;-72
2022/11/13 11:23:51;;;;;;;6.05;4.78;;;18.60;96.70;;;;;;5115864;27;20082;-72
2022/11/13 11:26:46;;;;;;;6.57;4.50;;;18.60;96.70;;;;;;5093406;27;20059;-71
2022/11/13 11:29:38;;;;;;;8.50;5.30;;;18.40;96.70;;;;;;5093656;28;20058;-73
2022/11/13 11:32:31;;;;;;;6.45;4.50;;;18.40;96.70;;;;;;5103707;27;20047;-72
2022/11/13 11:35:21;;;;;;;5.32;4.28;;;18.40;96.70;;;;;;5118333;27;20053;-72
2022/11/13 11:38:14;;;;;;;6.03;4.10;;;18.30;96.70;;;;;;5089934;27;20086;-72
2022/11/13 11:41:09;;;;;;;7.13;4.45;;;18.30;96.70;;;;;;5124348;27;20058;-71
2022/11/13 11:44:14;;;;;;;5.70;4.35;;;18.20;96.70;;;;;;5108449;27;20115;-72
2022/11/13 11:47:00;;;;;;;6.63;4.50;;;18.20;96.70;;;;;;5102145;27;20105;-72
2022/11/13 11:49:47;;;;;;;6.20;4.83;;;18.10;96.70;;;;;;5089244;28;20169;-71
2022/11/13 11:52:52;;;;;;;7.40;4.57;;;18.00;96.70;;;;;;5111679;27;20051;-70
2022/11/13 11:56:15;;;;;;;6.45;4.25;;;17.90;96.70;;;;;;5113195;27;20174;-71
2022/11/13 11:59:11;;;;;;;5.53;4.20;;;17.90;96.70;;;;;;5103839;27;20654;-72
2022/11/13 12:02:34;;;;;;;6.13;4.68;;;17.90;96.70;;;;;;5100024;27;20046;-72
2022/11/13 12:05:23;;;;;;;6.57;5.20;;;17.90;96.70;;;;;;5112356;27;20062;-71
2022/11/13 12:08:21;;;;;;;6.65;5.07;;;17.80;96.70;;;;;;5112545;27;20169;-71
2022/11/13 12:11:17;;;;;;;6.82;4.75;;;17.80;96.70;;;;;;5091317;27;20741;-71
2022/11/13 12:14:20;;;;;;;6.45;4.78;;;17.80;96.70;;;;;;5114394;27;20202;-71
2022/11/13 12:17:21;;;;;;;5.95;4.28;;;17.80;96.70;;;;;;5100033;27;20127;-72
2022/11/13 12:20:22;;;;;;;7.80;4.93;;;17.90;96.70;;;;;;5109414;27;20151;-71
2022/11/13 12:23:20;;;;;;;4.78;4.30;;;17.90;96.70;;;;;;5106839;27;20132;-71
2022/11/13 12:26:16;;;;;;;7.03;4.82;;;17.90;96.70;;;;;;5112028;27;20127;-71
2022/11/13 12:29:14;;;;;;;6.72;5.07;;;17.90;96.70;;;;;;5100776;27;20147;-71
2022/11/13 12:32:13;;;;;;;6.28;4.80;;;17.90;96.70;;;;;;5108985;27;20050;-72
2022/11/13 12:35:06;;;;;;;6.93;4.75;;;17.90;96.70;;;;;;5096985;28;20077;-71
2022/11/13 12:37:56;;;;;;;4.68;4.28;;;17.90;96.70;;;;;;5105398;27;20132;-71
2022/11/13 12:41:17;;;;;;;7.95;4.90;;;17.90;96.70;;;;;;5105935;27;20451;-71
2022/11/13 12:44:20;;;;;;;5.65;4.50;;;17.80;96.70;;;;;;5066338;28;20062;-71
2022/11/13 12:47:07;;;;;;;6.65;4.38;;;17.80;96.70;;;;;;5062471;28;20246;-71
2022/11/13 12:50:02;;;;;;;5.10;4.43;;;17.80;96.70;;;;;;5067823;28;20200;-71
2022/11/13 12:52:59;;;;;;;6.95;4.30;;;17.70;96.70;;;;;;5074555;28;20387;-72
2022/11/13 12:55:55;;;;;;;5.68;4.47;;;17.60;96.70;;;;;;5066262;28;20484;-72
2022/11/13 12:58:52;;;;;;;6.47;4.70;;;17.60;96.70;;;;;;5061355;28;20775;-71
2022/11/13 13:02:39;;;;;;;7.03;4.30;;;17.60;96.70;;;;;;5083525;27;20527;-71
2022/11/13 13:05:50;;;;;;;7.25;4.50;;;17.50;96.70;;;;;;5108670;27;20066;-71
2022/11/13 13:09:05;;;;;;;5.85;4.60;;;17.40;96.70;;;;;;5096791;27;20047;-71
2022/11/13 13:12:00;;;;;;;5.68;4.65;;;17.40;96.70;;;;;;5114030;27;20043;-71
2022/11/13 13:15:14;;;;;;;6.15;4.88;;;17.40;96.70;;;;;;5097078;27;20467;-71
2022/11/13 13:18:23;;;;;;;6.40;5.45;;;17.30;96.70;;;;;;5082878;28;20050;-71
2022/11/13 13:21:11;;;;;;;6.07;5.13;;;17.30;96.70;;;;;;5104301;27;21186;-71
2022/11/13 13:24:06;;;;;;;6.95;5.07;;;17.20;96.70;;;;;;5093631;28;20095;-71
2022/11/13 13:26:53;;;;;;;7.57;5.32;;;17.20;96.70;;;;;;5114716;27;20139;-72
2022/11/13 13:29:40;;;;;;;5.40;4.90;;;17.20;96.70;;;;;;5106527;27;20050;-72
2022/11/13 13:32:34;;;;;;;6.22;4.75;;;17.10;96.70;;;;;;5083835;27;20107;-72
2022/11/13 13:35:28;;;;;;;8.77;4.80;;;17.10;96.70;;;;;;5108345;27;20062;-72
2022/11/13 13:38:23;;;;;;;5.80;4.32;;;17.10;96.70;;;;;;5090991;28;20062;-72
2022/11/13 13:41:24;;;;;;;5.65;5.05;;;17.00;96.70;;;;;;5116345;27;20116;-72
2022/11/13 13:44:31;;;;;;;5.55;4.60;;;17.00;96.70;;;;;;5105438;27;21232;-71
2022/11/13 13:47:24;;;;;;;6.15;5.20;;;17.00;96.70;;;;;;5101901;28;20649;-72
2022/11/13 13:50:18;;;;;;;5.30;4.80;;;17.00;96.70;;;;;;5113326;28;20051;-72
2022/11/13 13:53:08;;;;;;;5.35;4.82;;;16.90;96.70;;;;;;5095515;27;20059;-73
2022/11/13 13:55:55;;;;;;;6.68;4.78;;;16.90;96.70;;;;;;5106950;28;20172;-72
2022/11/13 13:58:42;;;;;;;6.07;5.47;;;16.80;96.70;;;;;;5111228;27;20220;-72
2022/11/13 14:01:30;;;;;;;5.65;4.72;;;16.80;96.70;;;;;;5107494;28;20059;-73
2022/11/13 14:04:19;;;;;;;7.68;5.15;;;16.80;96.70;;;;;;5107344;28;20062;-73
2022/11/13 14:07:19;;;;;;;6.03;4.47;;;16.80;96.70;;;;;;5093806;28;20099;-72
2022/11/13 14:10:15;;;;;;;8.70;6.93;;;16.70;96.70;;;;;;5112441;27;20058;-72
2022/11/13 14:13:02;;;;;;;6.97;5.35;;;16.70;96.70;;;;;;5092419;28;20177;-72
2022/11/13 14:15:58;;;;;;;6.65;5.95;;;16.70;96.70;;;;;;5116995;28;20185;-72
2022/11/13 14:18:45;;;;;;;6.82;5.57;;;16.60;96.70;;;;;;5110000;27;20518;-71
2022/11/13 14:21:41;;;;;;;6.20;5.20;;;16.60;96.70;;;;;;5109218;28;20051;-72
2022/11/13 14:24:32;;;;;;;6.15;5.55;;;16.60;96.70;;;;;;5087630;28;20623;-72
2022/11/13 14:27:23;;;;;;;7.05;5.43;;;16.60;96.70;;;;;;5108288;28;20058;-72
2022/11/13 14:30:22;;;;;;;6.60;5.90;;;16.60;96.70;;;;;;5094137;28;20084;-72
2022/11/13 14:33:12;;;;;;;6.47;5.68;;;16.60;96.70;;;;;;5111281;27;20605;-72
2022/11/13 14:35:59;;;;;;;6.00;5.38;;;16.60;96.70;;;;;;5111609;28;21090;-72
2022/11/13 14:38:47;;;;;;;8.30;5.65;;;16.50;96.70;;;;;;5105283;28;20058;-72
2022/11/13 14:41:44;;;;;;;5.90;5.40;;;16.50;96.70;;;;;;5103829;28;20118;-72
2022/11/13 14:44:33;;;;;;;7.10;6.40;;;16.50;96.70;;;;;;5116195;27;20043;-71
2022/11/13 14:47:36;;;;;;;8.68;6.38;;;16.50;96.70;;;;;;5110564;27;21410;-72
2022/11/13 14:50:25;;;;;;;7.07;6.13;;;16.50;96.70;;;;;;5094326;28;20069;-73
2022/11/13 14:53:11;;;;;;;6.63;5.70;;;16.50;96.70;;;;;;5105363;27;20050;-73
2022/11/13 14:56:00;;;;;;;7.88;5.88;;;16.50;96.70;;;;;;5095448;27;20196;-71
2022/11/13 14:58:47;;;;;;;9.25;6.25;;;16.40;96.70;;;;;;5122022;27;20054;-70